Time;durP1;ratioP1;P1;durP2;ratioP2;P2;SDS_P1;SDS_P2;PMS_P1;PMS_P2;Temp;Humidity;BMP_temperature;BMP_pressure;BME280_temperature;BME280_humidity;BME280_pressure;Samples;Min_cycle;Max_cycle;Signal;HPM_P1;HPM_P2
2022/05/25 00:01:59;;;;;;;5.63;3.40;;;;;;;17.25;94.20;97732.25;4838216;28;20050;-63
2022/05/25 00:04:24;;;;;;;7.22;3.40;;;;;;;17.15;96.81;97712.69;4816131;28;20260;-64
2022/05/25 00:06:50;;;;;;;6.05;3.47;;;;;;;17.16;96.45;97727.44;4784898;28;25157;-64
2022/05/25 00:09:15;;;;;;;5.95;2.90;;;;;;;17.17;93.81;97729.84;4790031;28;20050;-65
2022/05/25 00:11:41;;;;;;;6.40;3.30;;;;;;;17.20;93.46;97732.06;4800252;28;20983;-64
2022/05/25 00:14:07;;;;;;;6.53;3.85;;;;;;;17.22;95.49;97727.41;4784853;28;20038;-65
2022/05/25 00:16:32;;;;;;;6.85;3.33;;;;;;;17.19;95.53;97732.28;4783953;28;20912;-65
2022/05/25 00:21:41;;;;;;;6.43;3.55;;;;;;;16.95;99.26;97720.66;4837317;28;20712;-60
2022/05/25 00:24:07;;;;;;;6.63;3.83;;;;;;;16.96;100.00;97722.25;4812838;28;20047;-60
2022/05/25 00:26:33;;;;;;;6.72;3.65;;;;;;;16.84;100.00;97728.16;4792295;28;20514;-62
2022/05/25 00:28:59;;;;;;;5.82;3.80;;;;;;;16.75;100.00;97705.72;4777553;28;20035;-58
2022/05/25 00:31:25;;;;;;;7.45;3.95;;;;;;;16.75;100.00;97718.06;4787058;28;20248;-61
2022/05/25 00:33:50;;;;;;;7.95;3.72;;;;;;;16.71;100.00;97722.91;4786191;28;20822;-63
2022/05/25 00:36:16;;;;;;;8.43;4.35;;;;;;;16.67;100.00;97716.47;4778608;28;20700;-62
2022/05/25 00:38:41;;;;;;;6.60;4.28;;;;;;;16.58;100.00;97723.75;4813938;28;20721;-58
2022/05/25 00:41:07;;;;;;;6.97;3.55;;;;;;;16.53;100.00;97734.84;4823433;28;20130;-58
2022/05/25 00:43:33;;;;;;;7.78;3.85;;;;;;;16.50;100.00;97730.03;4866337;28;20030;-62
2022/05/25 00:46:02;;;;;;;6.60;3.88;;;;;;;16.48;100.00;97747.78;4848149;28;20049;-60
2022/05/25 00:48:44;;;;;;;8.67;3.57;;;;;;;16.48;100.00;97757.47;4768037;28;20046;-61
2022/05/25 00:51:12;;;;;;;6.05;3.20;;;;;;;16.52;100.00;97779.69;4825420;28;20041;-63
2022/05/25 00:53:49;;;;;;;7.30;3.80;;;;;;;16.46;100.00;97775.22;4852244;28;20231;-62
2022/05/25 00:56:17;;;;;;;9.65;3.97;;;;;;;16.54;100.00;97801.28;4812844;28;20058;-58
2022/05/25 00:58:45;;;;;;;10.50;4.00;;;;;;;16.27;100.00;97819.63;4777029;28;20463;-56
2022/05/25 01:01:11;;;;;;;8.30;3.88;;;;;;;15.89;100.00;97772.97;4780633;28;20328;-58
2022/05/25 01:03:36;;;;;;;8.45;4.25;;;;;;;15.88;100.00;97796.75;4793651;28;20367;-59
2022/05/25 01:06:10;;;;;;;9.18;4.30;;;;;;;15.95;100.00;97803.66;4798932;28;20460;-61
2022/05/25 01:08:59;;;;;;;7.65;4.15;;;;;;;15.92;100.00;97772.56;4809225;28;20046;-61
2022/05/25 01:11:59;;;;;;;8.07;4.47;;;;;;;15.94;100.00;97748.78;4814925;28;20038;-56
2022/05/25 01:15:06;;;;;;;6.38;3.72;;;;;;;15.96;100.00;97733.66;4827408;28;20038;-57
2022/05/25 01:17:35;;;;;;;6.45;3.60;;;;;;;15.85;100.00;97737.69;4868429;28;20039;-60
2022/05/25 01:20:10;;;;;;;6.78;3.53;;;;;;;15.76;100.00;97741.50;4834142;28;20783;-63
2022/05/25 01:22:45;;;;;;;7.20;3.53;;;;;;;15.56;100.00;97716.03;4797000;28;21509;-62
2022/05/25 01:26:04;;;;;;;8.25;3.45;;;;;;;16.02;100.00;97776.63;4784877;28;20038;-60
2022/05/25 01:29:07;;;;;;;7.72;4.15;;;;;;;16.12;100.00;97792.78;4843298;28;20068;-61
2022/05/25 01:31:54;;;;;;;5.32;3.13;;;;;;;16.14;100.00;97806.50;4804260;28;20121;-61
2022/05/25 01:34:33;;;;;;;5.22;2.58;;;;;;;16.21;100.00;97820.44;4786520;28;20797;-62
2022/05/25 01:37:35;;;;;;;6.20;2.87;;;;;;;16.17;100.00;97828.88;4812431;28;20655;-61
2022/05/25 01:40:08;;;;;;;6.15;3.35;;;;;;;15.97;100.00;97834.88;4774551;28;20849;-63
2022/05/25 01:42:45;;;;;;;6.20;2.90;;;;;;;15.85;100.00;97862.69;4773647;28;20039;-63
2022/05/25 01:45:11;;;;;;;6.97;3.08;;;;;;;15.84;100.00;97871.56;4777862;28;20403;-63
2022/05/25 01:47:39;;;;;;;6.72;3.53;;;;;;;15.73;100.00;97867.66;4784673;28;20034;-60
2022/05/25 01:50:11;;;;;;;6.00;3.60;;;;;;;-145.70;100.00;63560.63;4765832;28;21562;-60
2022/05/25 01:52:41;;;;;;;5.57;3.30;;;;;;;15.64;100.00;97816.41;4864308;28;20162;-59
2022/05/25 01:55:16;;;;;;;6.82;3.10;;;;;;;15.72;100.00;97832.78;4817593;28;20791;-60
2022/05/25 01:57:45;;;;;;;7.85;3.35;;;;;;;15.44;100.00;97774.44;4778470;28;20043;-60
2022/05/25 02:00:27;;;;;;;4.88;2.75;;;;;;;15.53;100.00;97807.31;4783826;28;20556;-59
2022/05/25 02:05:42;;;;;;;6.57;2.45;;;;;;;15.35;100.00;97800.81;4783953;28;20149;-59
2022/05/25 02:08:24;;;;;;;4.32;2.13;;;;;;;15.34;100.00;97804.41;4768919;28;20041;-61
2022/05/25 02:11:08;;;;;;;5.00;1.95;;;;;;;15.43;100.00;97804.25;4866813;28;20094;-62
2022/05/25 02:13:50;;;;;;;5.72;1.70;;;;;;;15.11;100.00;97756.75;4805626;28;20031;-59
2022/05/25 02:16:51;;;;;;;4.70;1.90;;;;;;;15.63;100.00;97817.44;4801871;28;20624;-63
2022/05/25 02:19:19;;;;;;;4.05;1.90;;;;;;;15.55;100.00;97811.38;4786441;28;25467;-62
2022/05/25 02:22:20;;;;;;;4.53;2.00;;;;;;;15.46;100.00;97816.94;4779039;28;20047;-62
2022/05/25 02:24:53;;;;;;;4.13;1.92;;;;;;;15.40;100.00;97810.69;4786123;28;22648;-63
2022/05/25 02:27:30;;;;;;;6.10;2.30;;;;;;;15.38;100.00;97817.94;4783743;28;20066;-63
2022/05/25 02:30:07;;;;;;;4.45;2.00;;;;;;;15.36;100.00;97812.88;4763810;28;20027;-62
2022/05/25 02:32:44;;;;;;;5.75;2.70;;;;;;;15.33;100.00;97801.97;4787995;28;20306;-58
2022/05/25 02:35:10;;;;;;;5.65;2.33;;;;;;;15.27;100.00;97795.72;4822132;28;21921;-66
2022/05/25 02:37:36;;;;;;;4.50;2.30;;;;;;;15.44;100.00;97819.78;4818876;28;22125;-65
2022/05/25 02:40:04;;;;;;;5.30;2.90;;;;;;;15.17;100.00;97793.47;4768557;28;20034;-63
2022/05/25 02:42:29;;;;;;;6.95;2.50;;;;;;;15.37;100.00;97834.66;4765908;28;20053;-65
2022/05/25 02:44:55;;;;;;;5.72;2.38;;;;;;;15.44;100.00;97829.44;4791016;28;20651;-61
2022/05/25 02:47:21;;;;;;;4.57;2.47;;;;;;;15.44;100.00;97832.88;4801059;28;20282;-66
2022/05/25 02:49:46;;;;;;;4.78;2.30;;;;;;;15.39;100.00;97837.91;4798881;28;21045;-61
2022/05/25 02:52:12;;;;;;;6.00;2.38;;;;;;;15.43;100.00;97836.50;4835820;28;20039;-60
2022/05/25 02:54:38;;;;;;;6.13;2.40;;;;;;;15.48;100.00;97834.09;4790905;28;20039;-63
2022/05/25 02:57:05;;;;;;;4.80;2.28;;;;;;;15.05;100.00;97766.22;4855137;28;20413;-66
2022/05/25 02:59:31;;;;;;;4.88;2.30;;;;;;;15.25;100.00;97791.69;4811354;28;20065;-63
2022/05/25 03:01:57;;;;;;;6.68;2.17;;;;;;;15.49;100.00;97851.41;4786140;28;20043;-63
2022/05/25 03:04:22;;;;;;;6.10;2.47;;;;;;;15.40;100.00;97830.84;4796109;28;20097;-63
2022/05/25 03:06:48;;;;;;;5.07;2.30;;;;;;;15.40;100.00;97838.69;4801993;28;20043;-64
2022/05/25 03:09:13;;;;;;;5.15;2.33;;;;;;;15.46;100.00;97835.28;4804395;28;20781;-66
2022/05/25 03:11:39;;;;;;;4.15;2.00;;;;;;;15.47;100.00;97848.19;4802811;28;20106;-62
2022/05/25 03:14:05;;;;;;;6.40;2.45;;;;;;;15.52;100.00;97851.03;4802424;28;20103;-61
2022/05/25 03:16:32;;;;;;;6.68;2.45;;;;;;;15.56;100.00;97849.66;4865923;28;22247;-65
2022/05/25 03:18:58;;;;;;;4.80;2.00;;;;;;;15.47;100.00;97852.63;4843627;28;20074;-64
2022/05/25 03:21:23;;;;;;;6.63;2.40;;;;;;;15.35;100.00;97841.88;4787688;28;20038;-62
2022/05/25 03:23:49;;;;;;;6.93;2.30;;;;;;;15.15;100.00;97823.44;4795962;28;20039;-66
2022/05/25 03:26:15;;;;;;;4.63;2.00;;;;;;;15.44;100.00;97872.19;4781292;28;20638;-65
2022/05/25 03:28:41;;;;;;;5.53;2.03;;;;;;;15.44;100.00;97869.56;4765450;28;20666;-66
2022/05/25 03:31:06;;;;;;;7.72;2.47;;;;;;;15.42;100.00;97861.06;4785688;28;24838;-63
2022/05/25 03:33:32;;;;;;;6.95;2.50;;;;;;;15.33;100.00;97860.44;4794725;28;20042;-60
2022/05/25 03:35:58;;;;;;;6.82;2.50;;;;;;;15.37;100.00;97869.50;4783173;28;20689;-62
2022/05/25 03:38:23;;;;;;;5.05;2.55;;;;;;;15.34;100.00;97867.28;4865660;28;20716;-60
2022/05/25 03:40:49;;;;;;;4.57;2.38;;;;;;;15.33;100.00;97870.91;4835753;28;20508;-61
2022/05/25 03:43:17;;;;;;;5.93;2.45;;;;;;;15.32;100.00;97871.91;4793404;28;22278;-61
2022/05/25 03:45:44;;;;;;;5.45;2.50;;;;;;;15.27;100.00;97849.91;4801309;28;20884;-62
2022/05/25 03:48:10;;;;;;;6.57;2.65;;;;;;;15.25;100.00;97831.75;4778778;28;20042;-62
2022/05/25 03:50:36;;;;;;;5.80;2.40;;;;;;;15.51;100.00;97873.00;4801103;28;20070;-64
2022/05/25 03:53:02;;;;;;;5.95;2.08;;;;;;;15.50;100.00;97863.53;4799289;28;20038;-62
2022/05/25 03:55:27;;;;;;;6.32;2.15;;;;;;;15.35;100.00;97836.63;4795319;28;20153;-62
2022/05/25 03:57:52;;;;;;;5.97;2.28;;;;;;;15.34;100.00;97835.84;4863170;28;20545;-63
2022/05/25 04:00:18;;;;;;;4.85;2.53;;;;;;;15.52;100.00;97874.63;4823735;28;20054;-61
2022/05/25 04:02:47;;;;;;;6.55;2.30;;;;;;;15.54;100.00;97885.72;4784542;28;20537;-62
2022/05/25 04:05:13;;;;;;;5.28;2.25;;;;;;;15.59;100.00;97893.00;4796795;28;20588;-62
2022/05/25 04:07:46;;;;;;;5.38;2.45;;;;;;;15.51;100.00;97893.16;4800782;28;20039;-65
2022/05/25 04:10:16;;;;;;;6.22;2.30;;;;;;;15.56;100.00;97901.25;4797260;28;21470;-68
2022/05/25 04:12:42;;;;;;;4.50;2.22;;;;;;;15.53;100.00;97907.69;4782624;28;25342;-67
2022/05/25 04:15:10;;;;;;;4.38;2.17;;;;;;;15.46;100.00;97903.41;4794900;28;20427;-66
2022/05/25 04:17:36;;;;;;;7.80;2.78;;;;;;;15.62;100.00;97920.63;4850345;28;20034;-62
2022/05/25 04:20:03;;;;;;;6.55;2.28;;;;;;;15.73;100.00;97920.06;4858802;28;20041;-64
2022/05/25 04:22:29;;;;;;;4.93;2.17;;;;;;;15.74;100.00;97917.28;4785778;28;20651;-63
2022/05/25 04:24:55;;;;;;;6.53;2.38;;;;;;;15.86;100.00;97925.41;4836083;28;20062;-65
2022/05/25 04:27:21;;;;;;;6.18;2.90;;;;;;;15.93;100.00;97931.50;4853402;28;20634;-65
2022/05/25 04:29:46;;;;;;;5.43;2.00;;;;;;;15.67;100.00;97902.50;4824709;28;20124;-65
2022/05/25 04:32:11;;;;;;;4.63;2.30;;;;;;;15.77;100.00;97929.22;4776406;28;20031;-66
2022/05/25 04:34:37;;;;;;;5.35;2.22;;;;;;;15.86;100.00;97928.03;4777475;28;21466;-64
2022/05/25 04:39:47;;;;;;;4.88;2.10;;;;;;;16.05;100.00;97923.88;4773643;28;25313;-65
2022/05/25 04:42:12;;;;;;;5.18;2.28;;;;;;;16.06;100.00;97925.50;4794407;28;20034;-64
2022/05/25 04:44:38;;;;;;;6.28;2.40;;;;;;;15.65;100.00;97886.19;4797002;28;20820;-67
2022/05/25 04:47:07;;;;;;;5.15;2.20;;;;;;;15.67;100.00;97894.66;4854793;28;20425;-67
2022/05/25 04:49:33;;;;;;;5.10;2.47;;;;;;;16.01;100.00;97927.91;4779307;28;20465;-63
2022/05/25 04:51:58;;;;;;;5.65;2.05;;;;;;;15.98;100.00;97928.28;4862718;28;20555;-62
2022/05/25 04:54:24;;;;;;;4.40;2.10;;;;;;;15.98;100.00;97946.63;4776747;28;26184;-61
2022/05/25 04:59:33;;;;;;;4.70;2.30;;;;;;;15.98;100.00;97943.22;4776261;28;20054;-63
2022/05/25 05:01:59;;;;;;;4.97;2.33;;;;;;;16.00;100.00;97942.00;4774881;28;20086;-66
2022/05/25 05:04:26;;;;;;;4.75;2.45;;;;;;;15.98;100.00;97951.88;4775864;28;21751;-65
2022/05/25 05:06:52;;;;;;;6.20;2.33;;;;;;;15.72;100.00;97902.75;4778692;28;20043;-64
2022/05/25 05:09:18;;;;;;;4.45;2.28;;;;;;;15.85;100.00;97943.97;4758412;28;21703;-66
2022/05/25 05:11:44;;;;;;;6.07;2.03;;;;;;;15.89;100.00;97950.41;4791071;28;20041;-64
2022/05/25 05:14:09;;;;;;;4.80;2.25;;;;;;;15.96;100.00;97969.63;4850999;28;20153;-66
2022/05/25 05:16:35;;;;;;;7.35;2.00;;;;;;;15.85;100.00;97950.00;4802914;28;20711;-65
2022/05/25 05:19:00;;;;;;;4.57;2.20;;;;;;;15.95;100.00;97976.69;4796075;28;20877;-65
2022/05/25 05:21:26;;;;;;;5.97;2.22;;;;;;;16.00;100.00;97994.44;4785918;28;21132;-67
2022/05/25 05:23:51;;;;;;;6.53;2.42;;;;;;;16.02;100.00;97994.25;4780387;28;20039;-63
2022/05/25 05:26:17;;;;;;;4.65;2.20;;;;;;;16.02;100.00;97987.19;4777393;28;25242;-61
2022/05/25 05:28:43;;;;;;;5.63;2.58;;;;;;;15.82;100.00;97958.25;4849990;28;20160;-59
2022/05/25 05:31:09;;;;;;;6.78;2.97;;;;;;;15.92;100.00;97986.75;4846773;28;20033;-62
2022/05/25 05:33:35;;;;;;;8.57;2.60;;;;;;;15.72;100.00;97963.81;4788950;28;20124;-59
2022/05/25 05:36:16;;;;;;;9.50;3.55;;;;;;;15.61;100.00;97969.59;4814066;28;20534;-61
2022/05/25 05:38:52;;;;;;;6.25;2.35;;;;;;;15.42;100.00;97959.81;4761255;28;20038;-60
2022/05/25 05:41:21;;;;;;;4.93;2.35;;;;;;;15.49;100.00;97953.59;4778098;28;20461;-60
2022/05/25 05:43:46;;;;;;;5.68;2.50;;;;;;;15.57;100.00;97963.94;4757366;28;20131;-58
2022/05/25 05:46:12;;;;;;;5.28;2.40;;;;;;;15.59;100.00;97971.63;4762655;28;21855;-60
2022/05/25 05:48:38;;;;;;;5.10;2.55;;;;;;;15.67;100.00;97997.66;4777034;28;20035;-58
2022/05/25 05:51:04;;;;;;;6.97;2.30;;;;;;;15.71;100.00;98021.66;4847385;28;21798;-57
2022/05/25 05:53:30;;;;;;;6.40;2.60;;;;;;;15.76;100.00;98027.97;4843898;28;20177;-58
2022/05/25 05:55:57;;;;;;;6.50;2.65;;;;;;;15.72;100.00;98049.50;4788565;28;20537;-63
2022/05/25 05:58:22;;;;;;;6.47;2.63;;;;;;;15.70;100.00;98052.31;4811007;28;21563;-60
2022/05/25 06:00:48;;;;;;;5.18;2.28;;;;;;;15.43;100.00;98012.00;4779699;28;20081;-61
2022/05/25 06:03:16;;;;;;;5.35;2.30;;;;;;;15.56;100.00;98056.63;4780596;28;20050;-60
2022/05/25 06:05:42;;;;;;;5.30;2.00;;;;;;;15.46;100.00;98043.06;4772377;28;25260;-57
2022/05/25 06:08:13;;;;;;;4.85;1.90;;;;;;;15.38;100.00;98040.56;4777840;28;20050;-60
2022/05/25 06:10:40;;;;;;;4.55;1.80;;;;;;;15.05;100.00;97998.41;4762684;28;20030;-59
2022/05/25 06:13:07;;;;;;;6.20;1.95;;;;;;;15.30;100.00;98046.75;4841351;28;20103;-60
2022/05/25 06:21:05;;;;;;;4.60;1.80;;;;;;;15.36;100.00;98038.13;4850770;28;20054;-58
2022/05/25 06:23:31;;;;;;;4.00;1.90;;;;;;;15.33;100.00;98035.09;4859097;28;20034;-60
2022/05/25 06:25:56;;;;;;;6.60;2.20;;;;;;;15.35;100.00;98044.41;4794620;28;20045;-59
2022/05/25 06:28:22;;;;;;;6.20;1.98;;;;;;;15.28;100.00;98034.88;4807571;28;20467;-59
2022/05/25 06:30:47;;;;;;;6.47;2.15;;;;;;;15.04;100.00;98002.00;4775054;28;20042;-59
2022/05/25 06:33:12;;;;;;;4.75;2.10;;;;;;;15.08;100.00;97992.81;4783787;28;20556;-59
2022/05/25 06:35:38;;;;;;;4.53;1.77;;;;;;;15.26;100.00;98027.19;4761273;28;20478;-62
2022/05/25 06:38:04;;;;;;;4.68;2.17;;;;;;;15.29;100.00;98021.56;4780643;28;20560;-62
2022/05/25 06:40:30;;;;;;;7.95;2.92;;;;;;;15.38;100.00;98040.56;4791069;28;20203;-63
2022/05/25 06:42:55;;;;;;;5.10;2.35;;;;;;;15.26;100.00;98021.97;4853500;28;20187;-67
2022/05/25 06:45:21;;;;;;;5.45;2.22;;;;;;;15.30;100.00;98017.16;4799463;28;21796;-58
2022/05/25 06:47:46;;;;;;;4.55;2.08;;;;;;;15.57;100.00;98058.28;4830897;28;20054;-60
2022/05/25 06:50:12;;;;;;;4.82;1.90;;;;;;;15.34;100.00;98041.97;4812427;28;20397;-61
2022/05/25 06:52:37;;;;;;;5.20;2.10;;;;;;;15.60;100.00;98067.53;4777575;28;20478;-61
2022/05/25 06:55:04;;;;;;;5.07;2.15;;;;;;;15.69;100.00;98070.84;4777546;28;20450;-61
2022/05/25 06:57:30;;;;;;;6.30;2.35;;;;;;;15.87;100.00;98073.81;4770243;28;20107;-61
2022/05/25 06:59:55;;;;;;;4.80;2.00;;;;;;;15.97;100.00;98075.28;4776878;28;20496;-62
2022/05/25 07:02:21;;;;;;;5.88;2.33;;;;;;;16.07;100.00;98075.78;4779030;28;21052;-61
2022/05/25 07:04:47;;;;;;;4.70;2.00;;;;;;;16.13;100.00;98080.22;4806802;28;20074;-62
2022/05/25 07:07:13;;;;;;;4.82;2.28;;;;;;;16.18;100.00;98082.28;4828673;28;20046;-63
2022/05/25 07:09:39;;;;;;;5.40;2.05;;;;;;;16.10;100.00;98081.44;4858428;28;20022;-64
2022/05/25 07:12:08;;;;;;;4.07;1.75;;;;;;;16.16;100.00;98084.28;4805916;28;20050;-61
2022/05/25 07:14:35;;;;;;;5.75;1.83;;;;;;;16.19;100.00;98081.28;4805988;28;21275;-64
2022/05/25 07:17:01;;;;;;;5.05;2.05;;;;;;;16.33;100.00;98069.84;4842905;28;20740;-63
2022/05/25 07:19:27;;;;;;;5.38;2.00;;;;;;;16.45;100.00;98083.22;4791362;28;20469;-65
2022/05/25 07:21:53;;;;;;;6.28;2.30;;;;;;;16.33;100.00;98078.50;4775895;28;20124;-65
2022/05/25 07:24:18;;;;;;;5.28;2.40;;;;;;;16.27;100.00;98078.50;4783373;28;20065;-66
2022/05/25 07:26:44;;;;;;;4.88;2.00;;;;;;;16.47;100.00;98083.84;4778517;28;20043;-62
2022/05/25 07:29:09;;;;;;;4.93;2.33;;;;;;;16.62;100.00;98091.56;4783093;28;20069;-66
2022/05/25 07:31:37;;;;;;;4.88;2.40;;;;;;;16.66;100.00;98087.53;4774814;28;20039;-62
2022/05/25 07:34:21;;;;;;;6.63;2.05;;;;;;;16.48;100.00;98065.28;4782396;28;20051;-64
2022/05/25 07:36:48;;;;;;;5.45;2.30;;;;;;;16.80;100.00;98107.59;4845743;28;20034;-66
2022/05/25 07:39:14;;;;;;;5.00;1.92;;;;;;;16.71;100.00;98112.19;4839041;28;20045;-66
2022/05/25 07:41:42;;;;;;;5.05;1.80;;;;;;;16.68;100.00;98109.97;4813251;28;20117;-59
2022/05/25 07:44:12;;;;;;;5.78;2.45;;;;;;;16.65;100.00;98117.44;4776613;28;20883;-62
2022/05/25 07:46:37;;;;;;;3.90;1.73;;;;;;;16.51;100.00;98092.94;4766559;28;20165;-64
2022/05/25 07:49:02;;;;;;;5.25;1.45;;;;;;;16.45;100.00;98091.09;4782628;28;20763;-66
2022/05/25 07:51:28;;;;;;;4.75;2.15;;;;;;;16.73;100.00;98123.31;4783810;28;22234;-65
2022/05/25 07:53:58;;;;;;;5.05;2.05;;;;;;;16.84;100.00;98121.97;4779246;28;20658;-63
2022/05/25 07:56:35;;;;;;;5.47;2.10;;;;;;;16.86;100.00;98133.06;4773477;28;20035;-62
2022/05/25 07:59:03;;;;;;;5.50;1.80;;;;;;;16.81;100.00;98126.75;4843553;28;21445;-64
2022/05/25 08:07:02;;;;;;;3.72;1.50;;;;;;;17.54;99.93;98131.41;4780819;28;20101;-62
2022/05/25 08:09:29;;;;;;;5.25;1.70;;;;;;;17.46;95.48;98093.00;4778932;28;20460;-64
2022/05/25 08:11:54;;;;;;;4.35;1.70;;;;;;;18.16;100.00;98139.91;4762177;28;20067;-65
2022/05/25 08:14:21;;;;;;;4.22;1.85;;;;;;;18.40;100.00;98131.38;4772741;28;20046;-63
2022/05/25 08:16:47;;;;;;;3.60;1.70;;;;;;;18.67;100.00;98127.84;4808025;28;20019;-58
2022/05/25 08:19:12;;;;;;;4.20;1.58;;;;;;;18.68;97.11;98113.66;4823715;28;20160;-63
2022/05/25 08:21:37;;;;;;;3.58;1.40;;;;;;;18.91;88.61;98145.59;4856037;28;20117;-62
2022/05/25 08:24:03;;;;;;;4.45;1.65;;;;;;;18.92;90.47;98147.22;4808083;28;20038;-63
2022/05/25 08:26:29;;;;;;;4.50;1.60;;;;;;;18.99;85.55;98147.97;4768618;28;20039;-62
2022/05/25 08:28:54;;;;;;;4.13;1.33;;;;;;;19.16;83.80;98150.94;4782149;28;20499;-63
2022/05/25 08:31:19;;;;;;;3.67;1.40;;;;;;;19.34;81.06;98158.13;4773139;28;20073;-64
2022/05/25 08:33:45;;;;;;;3.80;1.50;;;;;;;19.67;82.17;98153.66;4778636;28;20038;-62
2022/05/25 08:36:10;;;;;;;4.82;1.60;;;;;;;19.81;83.41;98157.84;4775855;28;20113;-63
2022/05/25 08:38:36;;;;;;;3.90;1.30;;;;;;;19.81;82.53;98159.69;4773755;28;21768;-61
2022/05/25 08:41:01;;;;;;;3.13;1.50;;;;;;;19.48;82.15;98147.53;4858049;28;20042;-63
2022/05/25 08:43:40;;;;;;;3.70;1.40;;;;;;;19.61;82.15;98155.31;4807865;28;22085;-59
2022/05/25 08:46:07;;;;;;;3.50;1.38;;;;;;;19.81;81.68;98160.47;4763904;28;20772;-63
2022/05/25 08:48:33;;;;;;;4.63;1.33;;;;;;;19.97;79.39;98165.22;4777877;28;20047;-60
2022/05/25 08:51:03;;;;;;;4.82;1.33;;;;;;;19.89;81.01;98169.97;4777398;28;20031;-61
2022/05/25 08:53:29;;;;;;;3.08;1.30;;;;;;;19.97;78.03;98143.31;4784524;28;20382;-63
2022/05/25 08:56:22;;;;;;;3.08;1.20;;;;;;;20.16;75.67;98134.38;4777432;28;20658;-61
2022/05/25 08:58:52;;;;;;;4.68;1.50;;;;;;;20.10;83.07;98156.38;4800925;28;20616;-59
2022/05/25 09:01:38;;;;;;;3.25;1.10;;;;;;;19.99;81.40;98165.00;4814355;28;20050;-61
2022/05/25 09:04:11;;;;;;;4.88;1.40;;;;;;;19.96;84.55;98171.50;4854112;28;20675;-61
2022/05/25 09:06:58;;;;;;;3.63;1.40;;;;;;;20.07;84.34;98170.00;4858039;28;20520;-61
2022/05/25 09:09:31;;;;;;;3.35;1.25;;;;;;;20.07;78.07;98166.56;4778891;28;21520;-60
2022/05/25 09:12:03;;;;;;;3.95;1.40;;;;;;;20.11;78.40;98167.72;4858660;28;21146;-63
2022/05/25 09:14:38;;;;;;;5.10;1.30;;;;;;;20.21;78.13;98165.41;4848827;28;20496;-63
2022/05/25 09:17:13;;;;;;;4.25;1.70;;;;;;;20.62;81.12;98164.00;4806313;28;20410;-60
2022/05/25 09:19:44;;;;;;;3.80;1.35;;;;;;;20.47;79.40;98171.47;4799541;28;25474;-62
2022/05/25 09:22:13;;;;;;;4.10;1.40;;;;;;;20.46;80.17;98170.66;4839401;28;25471;-61
2022/05/25 09:24:39;;;;;;;4.03;1.33;;;;;;;20.42;80.60;98171.31;4859402;28;20045;-59
2022/05/25 09:27:07;;;;;;;3.67;1.48;;;;;;;20.59;81.56;98175.00;4786355;28;25077;-60
2022/05/25 09:29:32;;;;;;;4.20;1.70;;;;;;;20.67;82.72;98166.78;4784300;28;22105;-65
2022/05/25 09:32:03;;;;;;;5.05;1.55;;;;;;;20.57;82.55;98181.50;4762474;28;21110;-63
2022/05/25 09:34:40;;;;;;;5.70;1.50;;;;;;;20.70;81.32;98186.69;4771451;28;20045;-63
2022/05/25 09:37:28;;;;;;;4.32;1.40;;;;;;;20.54;78.54;98185.41;4780180;28;20883;-61
2022/05/25 09:39:54;;;;;;;5.00;1.80;;;;;;;20.34;78.98;98189.03;4779297;28;20061;-60
2022/05/25 09:42:21;;;;;;;3.72;1.45;;;;;;;20.34;78.73;98156.56;4783158;28;20035;-62
2022/05/25 09:44:52;;;;;;;4.72;1.40;;;;;;;20.51;77.05;98183.19;4839287;28;20614;-62
2022/05/25 09:47:39;;;;;;;4.10;1.60;;;;;;;20.50;78.58;98181.59;4842535;28;20027;-64
2022/05/25 09:50:05;;;;;;;3.00;1.00;;;;;;;20.53;80.32;98174.03;4779242;28;20254;-60
2022/05/25 09:52:38;;;;;;;3.47;1.00;;;;;;;20.68;78.68;98183.44;4780176;28;25369;-61
2022/05/25 09:55:05;;;;;;;3.65;1.10;;;;;;;20.67;78.24;98180.00;4773066;28;20927;-63
2022/05/25 09:57:45;;;;;;;3.38;1.02;;;;;;;20.83;76.61;98183.09;4783311;28;20521;-64
2022/05/25 10:00:39;;;;;;;;;;;;;;;20.85;74.46;98159.91;4778390;28;20042;-63
2022/05/25 10:03:11;;;;;;;2.95;1.17;;;;;;;20.98;72.90;98180.06;4786171;28;21312;-62
2022/05/25 10:05:52;;;;;;;2.90;1.00;;;;;;;20.79;74.37;98151.03;4770687;28;20034;-63
2022/05/25 10:08:20;;;;;;;4.05;1.08;;;;;;;21.02;74.50;98189.16;4827341;28;22311;-62
2022/05/25 10:10:55;;;;;;;3.53;1.10;;;;;;;21.15;73.67;98185.53;4819054;28;20700;-58
2022/05/25 10:13:25;;;;;;;2.90;1.00;;;;;;;21.20;72.40;98165.31;4785666;28;20207;-62
2022/05/25 10:15:52;;;;;;;2.63;0.90;;;;;;;21.23;72.85;98183.41;4882144;28;20705;-62
2022/05/25 10:18:39;;;;;;;1.98;0.88;;;;;;;21.31;72.81;98195.47;4873984;28;20459;-61
2022/05/25 10:21:07;;;;;;;3.03;0.90;;;;;;;21.03;71.35;98148.50;4840122;28;20038;-65
2022/05/25 10:23:33;;;;;;;3.70;0.90;;;;;;;21.31;71.40;98191.00;4800377;28;21264;-62
2022/05/25 10:26:10;;;;;;;2.70;1.00;;;;;;;21.25;70.48;98191.09;4804328;28;20035;-61
2022/05/25 10:28:44;;;;;;;3.30;1.00;;;;;;;21.13;72.26;98191.84;4809278;28;20077;-65
2022/05/25 10:37:07;;;;;;;3.22;1.05;;;;;;;20.53;70.35;98139.72;4838037;28;20038;-63
2022/05/25 10:39:39;;;;;;;2.80;0.88;;;;;;;20.91;66.44;98198.63;4814912;28;21329;-64
2022/05/25 10:42:18;;;;;;;2.60;1.00;;;;;;;20.67;71.60;98202.97;4799782;28;20459;-63
2022/05/25 10:44:52;;;;;;;3.47;1.30;;;;;;;20.49;73.14;98167.56;4797231;28;20113;-63
2022/05/25 10:47:55;;;;;;;3.03;1.08;;;;;;;20.58;74.72;98201.63;4788649;28;25241;-62
2022/05/25 10:50:58;;;;;;;3.38;1.20;;;;;;;20.33;73.62;98207.72;4833509;28;20696;-62
2022/05/25 10:57:13;;;;;;;4.45;1.20;;;;;;;20.00;76.82;98211.47;4882706;28;20185;-61
2022/05/25 10:59:44;;;;;;;3.45;1.20;;;;;;;19.84;76.88;98206.72;4838772;28;20029;-63
2022/05/25 11:02:33;;;;;;;3.88;1.10;;;;;;;19.89;75.26;98217.44;4784162;28;20097;-63
2022/05/25 11:05:25;;;;;;;2.78;1.10;;;;;;;19.90;77.59;98217.22;4767053;28;21487;-61
2022/05/25 11:07:55;;;;;;;3.58;1.27;;;;;;;19.73;78.20;98187.09;4784779;28;20043;-62
2022/05/25 11:10:39;;;;;;;2.67;1.00;;;;;;;19.99;76.49;98228.34;4780275;28;20895;-63
2022/05/25 11:13:23;;;;;;;3.78;1.13;;;;;;;19.76;76.35;98186.69;4807452;28;20116;-63
2022/05/25 11:16:04;;;;;;;3.65;1.40;;;;;;;19.75;76.12;98199.09;4865719;28;20123;-63
2022/05/25 11:19:04;;;;;;;3.30;1.30;;;;;;;19.98;76.04;98229.34;4814108;28;20592;-59
2022/05/25 11:21:51;;;;;;;4.10;1.30;;;;;;;19.84;74.99;98193.53;4796597;28;23396;-62
2022/05/25 11:24:23;;;;;;;3.30;1.30;;;;;;;19.90;76.29;98182.94;4801166;28;20714;-64
2022/05/25 11:27:13;;;;;;;2.78;1.10;;;;;;;19.97;75.73;98222.47;4783257;28;20101;-63
2022/05/25 11:30:00;;;;;;;3.17;1.10;;;;;;;19.98;76.57;98222.22;4792017;28;20038;-63
2022/05/25 11:32:45;;;;;;;2.97;1.15;;;;;;;20.07;76.12;98229.91;4779161;28;20050;-64
2022/05/25 11:35:39;;;;;;;2.63;1.30;;;;;;;20.05;76.72;98243.28;4799335;28;20687;-64
2022/05/25 11:38:39;;;;;;;2.65;1.05;;;;;;;20.05;77.06;98231.94;4848053;28;20579;-64
2022/05/25 11:41:22;;;;;;;3.33;1.20;;;;;;;20.11;74.51;98241.63;4800336;28;24978;-62
2022/05/25 11:44:00;;;;;;;3.83;1.20;;;;;;;20.08;75.39;98234.97;4831144;28;21840;-63
2022/05/25 11:46:46;;;;;;;3.95;1.17;;;;;;;19.83;72.79;98213.03;4842777;28;20565;-61
2022/05/25 11:49:41;;;;;;;2.97;1.20;;;;;;;20.10;74.75;98243.47;4796761;28;20760;-64
2022/05/25 11:52:15;;;;;;;3.35;1.23;;;;;;;20.06;75.58;98241.47;4813540;28;20469;-62
2022/05/25 11:54:43;;;;;;;3.05;1.10;;;;;;;20.22;75.48;98242.75;4813455;28;20050;-65
2022/05/25 11:57:34;;;;;;;6.93;1.27;;;;;;;20.14;73.72;98231.44;4808360;28;20137;-64
2022/05/25 12:00:06;;;;;;;2.80;1.00;;;;;;;20.02;73.54;98195.41;4800263;28;20487;-62
2022/05/25 12:02:43;;;;;;;2.55;1.00;;;;;;;20.30;71.97;98237.22;4858247;28;21595;-60
2022/05/25 12:05:23;;;;;;;3.13;1.10;;;;;;;20.46;72.35;98233.19;4819333;28;20051;-60
2022/05/25 12:08:04;;;;;;;3.25;1.10;;;;;;;20.53;71.96;98228.66;4791133;28;20039;-59
2022/05/25 12:10:32;;;;;;;4.63;1.30;;;;;;;20.31;72.85;98189.47;4810957;28;20217;-59
2022/05/25 12:13:25;;;;;;;2.83;1.08;;;;;;;20.50;72.13;98240.50;4810809;28;20486;-61
2022/05/25 12:16:05;;;;;;;3.38;1.17;;;;;;;20.35;72.23;98197.75;4812263;28;20085;-59
2022/05/25 12:19:03;;;;;;;3.08;0.95;;;;;;;20.59;72.49;98235.75;4806188;28;20101;-60
2022/05/25 12:21:36;;;;;;;6.57;1.20;;;;;;;20.35;72.54;98210.97;4860530;28;20639;-60